Time;durP1;ratioP1;P1;durP2;ratioP2;P2;SDS_P1;SDS_P2;PMS_P1;PMS_P2;Temp;Humidity;BMP_temperature;BMP_pressure;BME280_temperature;BME280_humidity;BME280_pressure;Samples;Min_cycle;Max_cycle;Signal;HPM_P1;HPM_P2
2022/03/24 00:00:24;;;;;;;39.00;27.93;;;9.40;99.90;;;;;;4914797;29;20332;-62
2022/03/24 00:02:53;;;;;;;43.50;30.00;;;9.40;99.90;;;;;;4913610;29;20245;-62
2022/03/24 00:05:21;;;;;;;39.63;28.33;;;9.20;99.90;;;;;;4916781;29;20252;-62
2022/03/24 00:07:50;;;;;;;45.80;31.77;;;9.20;99.90;;;;;;4913304;29;20325;-61
2022/03/24 00:10:18;;;;;;;38.03;26.87;;;9.00;99.90;;;;;;4875739;29;1125716;-62
2022/03/24 00:12:47;;;;;;;40.60;28.37;;;9.10;99.90;;;;;;4914115;29;20250;-61
2022/03/24 00:15:16;;;;;;;46.47;32.17;;;9.10;99.90;;;;;;4914204;29;20738;-62
2022/03/24 00:17:44;;;;;;;37.40;26.70;;;9.00;99.90;;;;;;4913348;29;20324;-61
2022/03/24 00:20:13;;;;;;;44.20;30.80;;;9.00;99.90;;;;;;4930081;29;20241;-62
2022/03/24 00:22:41;;;;;;;38.87;26.17;;;8.90;99.90;;;;;;4932942;29;20328;-61
2022/03/24 00:25:10;;;;;;;41.93;28.23;;;8.90;99.90;;;;;;4917417;29;20249;-62
2022/03/24 00:27:39;;;;;;;48.83;31.90;;;8.80;99.90;;;;;;4913928;29;20327;-61
2022/03/24 00:30:10;;;;;;;46.70;30.77;;;8.80;99.90;;;;;;4914141;29;20245;-62
2022/03/24 00:32:38;;;;;;;49.10;31.60;;;8.80;99.90;;;;;;4913944;29;20253;-62
2022/03/24 00:35:08;;;;;;;48.67;31.77;;;8.70;99.90;;;;;;4910443;29;20250;-61
2022/03/24 00:37:36;;;;;;;48.53;31.83;;;8.70;99.90;;;;;;4897110;29;20319;-61
2022/03/24 00:40:07;;;;;;;44.37;29.87;;;8.70;99.90;;;;;;4928979;29;20296;-62
2022/03/24 00:42:36;;;;;;;38.77;26.47;;;8.70;99.90;;;;;;4932840;29;20332;-62
2022/03/24 00:45:09;;;;;;;38.30;27.50;;;8.60;99.90;;;;;;4932853;29;20300;-62
2022/03/24 00:47:41;;;;;;;41.63;27.17;;;8.60;99.90;;;;;;4930157;29;20850;-61
2022/03/24 00:50:10;;;;;;;45.67;30.53;;;8.60;99.90;;;;;;4923066;29;20781;-62
2022/03/24 00:52:42;;;;;;;39.47;26.17;;;8.50;99.90;;;;;;4913652;29;20253;-61
2022/03/24 00:55:12;;;;;;;40.53;28.60;;;8.50;99.90;;;;;;4897033;29;20277;-62
2022/03/24 00:57:42;;;;;;;46.67;29.57;;;8.40;99.90;;;;;;4913827;29;20240;-61
2022/03/24 01:00:15;;;;;;;45.93;31.43;;;8.50;99.90;;;;;;4913834;29;20251;-62
2022/03/24 01:02:45;;;;;;;48.43;32.60;;;8.30;99.90;;;;;;4913877;29;20320;-62
2022/03/24 01:05:15;;;;;;;38.93;27.20;;;8.30;99.90;;;;;;4928673;29;20714;-62
2022/03/24 01:07:44;;;;;;;42.17;26.83;;;8.40;99.90;;;;;;4912492;29;20233;-62
2022/03/24 01:10:14;;;;;;;40.73;26.93;;;8.30;99.90;;;;;;4913609;29;20245;-62
2022/03/24 01:12:43;;;;;;;43.40;28.63;;;8.30;99.90;;;;;;4913595;29;20237;-62
2022/03/24 01:15:14;;;;;;;42.80;27.47;;;8.30;99.90;;;;;;4913797;29;20332;-62
2022/03/24 01:17:43;;;;;;;41.17;27.30;;;8.30;99.90;;;;;;4913633;29;20237;-62
2022/03/24 01:20:14;;;;;;;53.80;33.77;;;8.20;99.90;;;;;;4929513;29;20243;-62
2022/03/24 01:22:42;;;;;;;44.47;29.67;;;8.10;99.90;;;;;;4932499;29;20790;-62
2022/03/24 01:25:11;;;;;;;49.43;32.70;;;8.00;99.90;;;;;;4932500;29;20724;-62
2022/03/24 01:27:40;;;;;;;40.93;27.60;;;8.00;99.90;;;;;;4929866;29;20747;-62
2022/03/24 01:30:09;;;;;;;46.20;31.73;;;8.00;99.90;;;;;;4915803;29;20241;-62
2022/03/24 01:32:41;;;;;;;43.63;30.13;;;8.10;99.90;;;;;;4899964;29;20248;-62
2022/03/24 01:35:12;;;;;;;43.23;28.27;;;8.00;99.90;;;;;;4915666;29;20288;-61
2022/03/24 01:37:42;;;;;;;55.97;34.60;;;8.10;99.90;;;;;;4900035;29;20335;-62
2022/03/24 01:40:13;;;;;;;44.00;29.33;;;8.00;99.90;;;;;;4932454;29;20267;-61
2022/03/24 01:42:43;;;;;;;45.13;30.67;;;8.00;99.90;;;;;;4916802;29;20236;-62
2022/03/24 01:45:11;;;;;;;44.73;28.23;;;8.00;99.90;;;;;;4912793;29;20622;-62
2022/03/24 01:47:39;;;;;;;41.63;28.13;;;8.00;99.90;;;;;;4916527;29;20256;-62
2022/03/24 01:50:11;;;;;;;45.30;29.73;;;8.00;99.90;;;;;;4925523;29;20631;-62
2022/03/24 01:52:40;;;;;;;44.37;30.77;;;7.80;99.90;;;;;;4915094;29;20236;-61
2022/03/24 01:55:10;;;;;;;44.43;29.17;;;7.80;99.90;;;;;;4931894;29;20245;-62
2022/03/24 01:57:39;;;;;;;44.90;30.30;;;7.80;99.90;;;;;;4918294;29;20243;-61
2022/03/24 02:00:09;;;;;;;56.57;34.50;;;7.80;99.90;;;;;;4920124;29;20253;-61
2022/03/24 02:02:42;;;;;;;42.60;30.17;;;7.70;99.90;;;;;;4877593;29;20304;-62
2022/03/24 02:05:11;;;;;;;38.73;26.80;;;7.70;99.90;;;;;;4889430;29;20247;-62
2022/03/24 02:07:43;;;;;;;40.33;28.13;;;7.80;99.90;;;;;;4913454;29;20240;-61
2022/03/24 02:10:12;;;;;;;48.20;32.07;;;7.80;99.90;;;;;;4896253;29;20244;-62
2022/03/24 02:12:42;;;;;;;39.23;26.97;;;7.70;99.90;;;;;;4896175;29;20289;-62
2022/03/24 02:15:11;;;;;;;40.93;26.23;;;7.70;99.90;;;;;;4896443;29;20293;-62
2022/03/24 02:17:41;;;;;;;38.20;26.03;;;7.80;99.90;;;;;;4896212;29;20391;-62
2022/03/24 02:20:10;;;;;;;43.20;28.70;;;7.70;99.90;;;;;;4911885;29;20256;-62
2022/03/24 02:22:40;;;;;;;42.17;27.87;;;7.60;99.90;;;;;;4896273;29;20278;-62
2022/03/24 02:25:09;;;;;;;51.13;33.83;;;7.50;99.90;;;;;;4912901;29;20763;-61
2022/03/24 02:27:38;;;;;;;49.20;31.63;;;7.40;99.90;;;;;;4913852;29;20578;-62
2022/03/24 02:30:08;;;;;;;39.30;27.83;;;7.40;99.90;;;;;;4897457;29;20762;-62
2022/03/24 02:32:37;;;;;;;46.17;29.20;;;7.50;99.90;;;;;;4897208;29;20240;-61
2022/03/24 02:35:05;;;;;;;47.33;32.53;;;7.40;99.90;;;;;;4897172;29;20652;-61
2022/03/24 02:37:33;;;;;;;49.50;32.77;;;7.30;99.90;;;;;;4897168;29;20245;-61
2022/03/24 02:40:05;;;;;;;44.27;29.93;;;7.40;99.90;;;;;;4896891;29;20248;-62
2022/03/24 02:42:33;;;;;;;46.43;30.63;;;7.20;99.90;;;;;;4896617;29;20277;-62
2022/03/24 02:45:03;;;;;;;51.93;32.53;;;7.30;99.90;;;;;;4911372;29;20331;-62
2022/03/24 02:47:32;;;;;;;51.97;31.80;;;7.20;99.90;;;;;;4914246;29;20247;-61
2022/03/24 02:50:01;;;;;;;45.33;29.13;;;7.30;99.90;;;;;;4892395;29;20241;-62
2022/03/24 02:52:29;;;;;;;39.63;28.47;;;7.30;99.90;;;;;;4896838;29;20253;-61
2022/03/24 02:54:57;;;;;;;50.60;31.57;;;7.40;99.90;;;;;;4896621;29;20252;-62
2022/03/24 02:57:27;;;;;;;42.57;28.77;;;7.30;99.90;;;;;;4896821;29;20328;-62
2022/03/24 02:59:56;;;;;;;41.10;27.33;;;7.30;99.90;;;;;;4896765;29;20662;-61
2022/03/24 03:02:24;;;;;;;42.83;27.63;;;7.20;99.90;;;;;;4896884;29;20240;-62
2022/03/24 03:04:53;;;;;;;42.50;28.70;;;7.30;99.90;;;;;;4896650;29;20307;-62
2022/03/24 03:07:22;;;;;;;46.77;30.10;;;7.30;99.90;;;;;;4896630;29;20728;-62
2022/03/24 03:09:51;;;;;;;44.87;29.07;;;7.30;99.90;;;;;;4907230;29;20327;-61
2022/03/24 03:12:19;;;;;;;48.20;31.97;;;7.10;99.90;;;;;;4915089;29;20299;-62
2022/03/24 03:14:48;;;;;;;49.70;31.87;;;7.10;99.90;;;;;;4914711;29;20239;-61
2022/03/24 03:17:17;;;;;;;46.97;31.70;;;7.10;99.90;;;;;;4915064;29;20717;-62
2022/03/24 03:19:46;;;;;;;44.60;29.47;;;6.90;99.90;;;;;;4927044;29;20266;-62
2022/03/24 03:22:15;;;;;;;48.43;32.70;;;6.90;99.90;;;;;;4934119;29;20244;-62
2022/03/24 03:24:44;;;;;;;41.23;26.50;;;7.00;99.90;;;;;;4921528;29;20253;-62
2022/03/24 03:27:13;;;;;;;38.50;26.30;;;7.00;99.90;;;;;;4915228;29;20339;-62
2022/03/24 03:29:41;;;;;;;45.13;29.47;;;7.00;99.90;;;;;;4914781;29;20241;-62
2022/03/24 03:32:11;;;;;;;45.77;31.23;;;7.20;99.90;;;;;;4915103;29;20247;-62
2022/03/24 03:34:41;;;;;;;47.37;31.17;;;7.00;99.90;;;;;;4914754;29;20772;-62
2022/03/24 03:37:12;;;;;;;47.47;31.53;;;6.90;99.90;;;;;;4914932;29;20692;-62
2022/03/24 03:39:40;;;;;;;45.67;30.50;;;6.80;99.90;;;;;;4914563;29;20247;-62
2022/03/24 03:42:09;;;;;;;48.13;29.67;;;6.80;99.90;;;;;;4914976;29;20235;-62
2022/03/24 03:44:37;;;;;;;43.57;29.63;;;6.70;99.90;;;;;;4925527;29;20239;-61
2022/03/24 03:47:07;;;;;;;44.93;30.50;;;6.70;99.90;;;;;;4933745;29;20232;-62
2022/03/24 03:49:37;;;;;;;43.60;29.30;;;6.70;99.90;;;;;;4924360;29;20581;-62
2022/03/24 03:52:25;;;;;;;39.77;27.43;;;6.80;99.90;;;;;;4913971;29;20237;-62
2022/03/24 03:54:53;;;;;;;40.80;26.20;;;6.80;99.90;;;;;;4914399;29;20244;-61
2022/03/24 03:57:21;;;;;;;48.23;31.37;;;6.80;99.90;;;;;;4914424;29;20296;-62
2022/03/24 03:59:49;;;;;;;41.90;26.83;;;6.70;99.90;;;;;;4914241;29;20319;-62
2022/03/24 04:02:18;;;;;;;49.73;31.03;;;6.70;99.90;;;;;;4914613;29;20708;-61
2022/03/24 04:04:49;;;;;;;43.30;27.90;;;6.60;99.90;;;;;;4913942;29;20720;-62
2022/03/24 04:07:18;;;;;;;48.67;31.50;;;6.60;99.90;;;;;;4914591;29;20642;-62
2022/03/24 04:09:46;;;;;;;44.67;29.27;;;6.40;99.90;;;;;;4926621;29;20258;-62
2022/03/24 04:12:14;;;;;;;49.27;31.17;;;6.30;99.90;;;;;;4933224;29;20245;-61
2022/03/24 04:14:43;;;;;;;48.57;32.03;;;6.20;99.90;;;;;;4932978;29;20772;-62
2022/03/24 04:17:11;;;;;;;45.90;30.17;;;6.20;99.90;;;;;;4914705;29;20245;-62
2022/03/24 04:19:39;;;;;;;42.53;27.10;;;6.10;99.90;;;;;;4926776;29;20734;-62
2022/03/24 04:22:08;;;;;;;40.90;27.13;;;6.40;99.90;;;;;;4933133;29;20262;-62
2022/03/24 04:24:37;;;;;;;49.67;31.17;;;6.40;99.90;;;;;;4932842;29;20600;-62
2022/03/24 04:27:06;;;;;;;42.53;27.83;;;6.40;99.90;;;;;;4933327;29;20323;-62
2022/03/24 04:29:34;;;;;;;42.33;26.17;;;6.40;99.90;;;;;;4915379;29;20314;-61
2022/03/24 04:32:02;;;;;;;44.63;29.23;;;6.40;99.90;;;;;;4914091;29;20251;-62
2022/03/24 04:34:30;;;;;;;45.67;31.13;;;6.40;99.90;;;;;;4924000;29;20240;-62
2022/03/24 04:36:58;;;;;;;49.43;31.33;;;6.40;99.90;;;;;;4932949;29;20259;-62
2022/03/24 04:39:28;;;;;;;39.20;26.73;;;6.20;99.90;;;;;;4932753;29;20270;-62
2022/03/24 04:41:56;;;;;;;43.60;29.13;;;6.20;99.90;;;;;;4933064;29;20258;-62
2022/03/24 04:44:25;;;;;;;40.37;26.73;;;6.20;99.90;;;;;;4932641;29;20231;-62
2022/03/24 04:46:53;;;;;;;42.70;29.17;;;6.20;99.90;;;;;;4924385;29;20276;-62
2022/03/24 04:49:22;;;;;;;44.63;29.77;;;6.20;99.90;;;;;;4913390;29;20243;-62
2022/03/24 04:51:50;;;;;;;40.10;27.03;;;6.20;99.90;;;;;;4913385;29;20236;-62
2022/03/24 04:54:18;;;;;;;41.83;27.33;;;6.30;99.90;;;;;;4910947;29;20621;-61
2022/03/24 04:56:47;;;;;;;44.50;29.80;;;6.20;99.90;;;;;;4913222;29;20242;-61
2022/03/24 04:59:15;;;;;;;49.33;30.97;;;6.00;99.90;;;;;;4913231;29;20335;-62
2022/03/24 05:01:44;;;;;;;46.53;30.07;;;6.00;99.90;;;;;;4913262;29;20272;-61
2022/03/24 05:04:12;;;;;;;45.10;28.60;;;5.90;99.90;;;;;;4914593;29;20237;-62
2022/03/24 05:06:41;;;;;;;47.93;29.37;;;6.00;99.90;;;;;;4914686;29;20275;-62
2022/03/24 05:09:09;;;;;;;49.20;31.43;;;5.90;99.90;;;;;;4916898;29;20236;-62
2022/03/24 05:11:38;;;;;;;44.47;29.67;;;5.90;99.90;;;;;;4916348;29;20236;-61
2022/03/24 05:14:08;;;;;;;39.03;25.97;;;5.90;99.90;;;;;;4916989;29;20271;-62
2022/03/24 05:16:36;;;;;;;41.27;27.73;;;5.80;99.90;;;;;;4916159;29;20237;-61
2022/03/24 05:19:05;;;;;;;44.97;29.27;;;6.00;99.90;;;;;;4917840;29;20768;-62
2022/03/24 05:21:33;;;;;;;45.93;28.33;;;6.10;99.90;;;;;;4916894;29;20750;-62
2022/03/24 05:24:02;;;;;;;40.00;24.70;;;6.10;99.90;;;;;;4916565;29;20332;-62
2022/03/24 05:26:30;;;;;;;47.93;28.77;;;6.20;99.90;;;;;;4917054;29;20376;-62
2022/03/24 05:28:58;;;;;;;45.50;29.63;;;6.30;99.90;;;;;;4920749;29;20239;-62
2022/03/24 05:31:28;;;;;;;41.03;29.17;;;6.20;99.90;;;;;;4926130;29;20232;-61
2022/03/24 05:33:56;;;;;;;43.37;27.47;;;6.10;99.90;;;;;;4929983;29;20244;-62
2022/03/24 05:36:25;;;;;;;41.27;27.80;;;6.10;99.90;;;;;;4932798;29;20241;-62
2022/03/24 05:38:56;;;;;;;50.93;29.97;;;6.00;99.90;;;;;;4930219;29;20244;-61
2022/03/24 05:41:26;;;;;;;50.80;29.93;;;6.00;99.90;;;;;;4916771;29;20730;-62
2022/03/24 05:44:06;;;;;;;54.10;32.27;;;6.10;99.90;;;;;;4916625;29;20300;-62
2022/03/24 05:46:47;;;;;;;49.20;30.43;;;6.00;99.90;;;;;;4918227;29;20244;-61
2022/03/24 05:49:17;;;;;;;46.87;30.30;;;6.00;99.90;;;;;;4920649;29;20659;-62
2022/03/24 05:52:12;;;;;;;48.90;29.77;;;6.00;99.90;;;;;;4895949;29;20769;-62
2022/03/24 05:54:40;;;;;;;49.23;31.47;;;6.20;99.90;;;;;;4909158;29;20263;-62
2022/03/24 05:57:10;;;;;;;46.43;27.87;;;6.20;99.90;;;;;;4916746;29;20327;-62
2022/03/24 05:59:39;;;;;;;46.80;28.23;;;6.40;99.90;;;;;;4927000;29;20236;-61
2022/03/24 06:02:09;;;;;;;47.93;32.30;;;6.50;99.90;;;;;;4916494;29;20236;-62
2022/03/24 06:04:40;;;;;;;47.27;30.33;;;6.60;99.90;;;;;;4916263;29;20319;-62
2022/03/24 06:07:09;;;;;;;48.57;30.80;;;6.70;99.90;;;;;;4916624;29;20243;-62
2022/03/24 06:09:37;;;;;;;50.20;30.20;;;6.90;99.90;;;;;;4921418;29;20265;-62
2022/03/24 06:12:09;;;;;;;50.50;30.40;;;7.00;99.90;;;;;;4916307;29;20241;-62
2022/03/24 06:14:38;;;;;;;53.53;30.17;;;7.10;99.90;;;;;;4915647;29;20292;-62
2022/03/24 06:17:07;;;;;;;48.40;31.03;;;7.10;99.90;;;;;;4915823;29;20296;-62
2022/03/24 06:19:36;;;;;;;45.50;30.60;;;7.00;99.90;;;;;;4926992;29;20669;-62
2022/03/24 06:22:05;;;;;;;47.73;28.77;;;7.10;99.90;;;;;;4926321;29;20748;-62
2022/03/24 06:24:34;;;;;;;46.07;30.03;;;7.10;99.90;;;;;;4915765;29;20244;-61
2022/03/24 06:27:03;;;;;;;46.57;29.70;;;6.80;99.90;;;;;;4915679;29;20251;-62
2022/03/24 06:29:32;;;;;;;43.47;29.07;;;6.70;99.90;;;;;;4915299;29;20243;-62
2022/03/24 06:32:00;;;;;;;43.10;26.67;;;6.70;99.90;;;;;;4897113;29;20245;-62
2022/03/24 06:34:30;;;;;;;42.37;25.73;;;6.70;99.90;;;;;;4906843;29;20232;-62
2022/03/24 06:36:58;;;;;;;46.73;28.70;;;7.10;99.90;;;;;;4899099;29;20727;-61
2022/03/24 06:39:26;;;;;;;47.87;31.60;;;7.40;99.90;;;;;;4915477;29;20668;-62
2022/03/24 06:41:55;;;;;;;43.33;29.20;;;7.20;99.90;;;;;;4923265;29;20236;-62
2022/03/24 06:44:23;;;;;;;47.33;29.73;;;7.20;99.90;;;;;;4930681;29;20243;-60
2022/03/24 06:46:52;;;;;;;42.07;28.70;;;7.10;99.90;;;;;;4928591;29;20236;-62
2022/03/24 06:49:20;;;;;;;41.53;29.03;;;7.20;99.90;;;;;;4926216;29;20640;-62
2022/03/24 06:51:49;;;;;;;42.73;29.73;;;7.30;99.90;;;;;;4927807;29;20235;-62
2022/03/24 06:54:18;;;;;;;40.43;27.13;;;7.40;99.90;;;;;;4933317;29;20720;-61
2022/03/24 06:56:46;;;;;;;42.10;28.27;;;7.50;99.90;;;;;;4927384;29;20599;-62
2022/03/24 06:59:14;;;;;;;44.90;28.57;;;7.60;99.90;;;;;;4933752;29;20232;-62
2022/03/24 07:01:42;;;;;;;41.47;28.77;;;7.70;99.90;;;;;;4927452;29;20239;-62
2022/03/24 07:04:10;;;;;;;39.83;28.20;;;7.80;99.90;;;;;;4922443;29;20329;-62
2022/03/24 07:06:40;;;;;;;40.03;28.43;;;8.00;99.90;;;;;;4934255;29;20239;-61
2022/03/24 07:09:09;;;;;;;38.83;26.83;;;8.10;99.90;;;;;;4927306;29;20323;-62
2022/03/24 07:11:37;;;;;;;39.43;28.27;;;8.30;99.90;;;;;;4933996;29;20361;-62
2022/03/24 07:14:08;;;;;;;44.03;29.00;;;8.40;99.90;;;;;;4927081;29;20236;-62
2022/03/24 07:16:36;;;;;;;41.23;27.73;;;8.60;99.90;;;;;;4914856;29;20327;-62
2022/03/24 07:19:06;;;;;;;43.07;28.13;;;8.70;99.90;;;;;;4922981;29;20237;-62
2022/03/24 07:21:34;;;;;;;43.97;27.90;;;8.90;99.90;;;;;;4933736;29;20246;-62
2022/03/24 07:24:03;;;;;;;42.20;29.27;;;9.10;99.90;;;;;;4925954;29;20653;-61
2022/03/24 07:26:32;;;;;;;36.30;27.83;;;9.30;99.90;;;;;;4914521;29;20248;-61
2022/03/24 07:29:02;;;;;;;45.23;28.83;;;9.50;99.90;;;;;;4914932;29;20245;-62
2022/03/24 07:31:31;;;;;;;36.67;26.57;;;9.80;99.90;;;;;;4914180;29;20305;-62
2022/03/24 07:34:01;;;;;;;40.57;30.13;;;10.10;99.90;;;;;;4915088;29;20654;-62
2022/03/24 07:36:29;;;;;;;39.57;29.07;;;10.30;99.90;;;;;;4914425;29;20252;-62
2022/03/24 07:38:59;;;;;;;38.97;28.60;;;10.50;99.90;;;;;;4914806;29;20250;-62
2022/03/24 07:41:29;;;;;;;44.10;30.27;;;10.70;99.90;;;;;;4914433;29;20289;-62
2022/03/24 07:43:59;;;;;;;40.50;28.60;;;10.90;99.90;;;;;;4914443;29;20337;-62
2022/03/24 07:46:27;;;;;;;38.23;28.47;;;11.10;99.90;;;;;;4914298;29;20289;-61
2022/03/24 07:48:55;;;;;;;43.83;28.83;;;11.40;99.90;;;;;;4920278;29;20241;-62
2022/03/24 07:51:23;;;;;;;45.10;30.13;;;11.50;99.90;;;;;;4933625;29;20257;-62
2022/03/24 07:53:59;;;;;;;36.00;28.07;;;11.60;99.90;;;;;;4933355;29;20246;-61
2022/03/24 07:56:28;;;;;;;37.03;28.53;;;11.80;99.90;;;;;;4933108;29;20238;-61
2022/03/24 07:58:58;;;;;;;38.30;29.43;;;11.90;99.90;;;;;;4933272;29;20239;-61
2022/03/24 08:01:28;;;;;;;39.20;27.63;;;12.20;99.90;;;;;;4933279;29;20773;-61
2022/03/24 08:03:59;;;;;;;39.63;28.30;;;12.40;99.90;;;;;;4930011;29;20255;-61
2022/03/24 08:06:29;;;;;;;37.40;28.37;;;12.70;99.90;;;;;;4915359;29;20243;-61
2022/03/24 08:08:57;;;;;;;37.23;28.47;;;12.90;99.90;;;;;;4914219;29;20310;-61
2022/03/24 08:11:26;;;;;;;35.90;27.57;;;13.20;99.90;;;;;;4914230;29;20707;-60
2022/03/24 08:13:56;;;;;;;35.87;27.57;;;13.30;99.90;;;;;;4902991;29;20239;-61
2022/03/24 08:16:27;;;;;;;38.03;28.20;;;13.40;99.90;;;;;;4920378;29;20246;-59
2022/03/24 08:18:55;;;;;;;40.60;29.50;;;13.50;99.90;;;;;;4919930;29;20325;-61
2022/03/24 08:21:24;;;;;;;37.83;27.90;;;13.60;99.90;;;;;;4933222;29;20266;-60
2022/03/24 08:23:52;;;;;;;33.43;26.03;;;13.70;99.90;;;;;;4926493;29;20318;-61
2022/03/24 08:26:20;;;;;;;36.93;27.20;;;14.20;99.90;;;;;;4914332;29;20262;-61
2022/03/24 08:28:56;;;;;;;35.70;27.40;;;14.20;99.90;;;;;;4914302;29;20244;-61
2022/03/24 08:31:27;;;;;;;35.70;26.20;;;14.50;99.90;;;;;;4914099;29;20254;-61
2022/03/24 08:33:55;;;;;;;35.37;27.00;;;14.60;99.90;;;;;;4919610;29;20243;-62
2022/03/24 08:36:26;;;;;;;35.77;26.20;;;14.80;99.90;;;;;;4933091;29;20247;-61
2022/03/24 08:38:56;;;;;;;38.20;26.77;;;14.90;99.90;;;;;;4933180;29;20287;-61
2022/03/24 08:41:25;;;;;;;35.20;27.93;;;15.10;99.90;;;;;;4939034;29;20235;-61
2022/03/24 08:43:53;;;;;;;35.70;27.23;;;15.40;99.90;;;;;;4935118;29;20234;-61
2022/03/24 08:46:24;;;;;;;38.57;27.07;;;15.50;99.90;;;;;;4917545;29;20787;-61
2022/03/24 08:48:55;;;;;;;36.80;26.80;;;15.80;99.90;;;;;;4917816;29;20739;-61
2022/03/24 08:51:23;;;;;;;35.43;27.00;;;16.10;99.90;;;;;;4917784;29;20314;-61
2022/03/24 08:53:52;;;;;;;34.50;26.20;;;16.50;99.90;;;;;;4922905;29;20242;-62
2022/03/24 08:56:20;;;;;;;33.77;25.67;;;16.70;99.90;;;;;;4936670;29;20240;-61
2022/03/24 08:58:49;;;;;;;35.37;27.57;;;16.90;99.90;;;;;;4925957;29;20244;-61
2022/03/24 09:01:19;;;;;;;36.63;27.83;;;17.00;99.90;;;;;;4917847;29;20240;-61
2022/03/24 09:03:49;;;;;;;37.07;29.23;;;17.30;99.90;;;;;;4922090;29;20700;-61
2022/03/24 09:06:20;;;;;;;36.90;26.73;;;17.30;99.90;;;;;;4936534;29;20330;-61
2022/03/24 09:08:48;;;;;;;37.50;26.93;;;16.90;99.90;;;;;;4931330;29;20236;-61
2022/03/24 09:11:16;;;;;;;33.73;26.90;;;17.10;99.90;;;;;;4935475;29;20232;-61
2022/03/24 09:13:45;;;;;;;33.33;27.23;;;17.20;99.90;;;;;;4928363;29;20704;-61
2022/03/24 09:16:14;;;;;;;33.37;26.87;;;17.40;99.90;;;;;;4916002;29;20292;-61
2022/03/24 09:18:43;;;;;;;37.57;27.87;;;17.60;99.90;;;;;;4927149;29;20246;-61
2022/03/24 09:21:11;;;;;;;35.20;26.00;;;17.70;99.10;;;;;;4920652;29;20724;-61
2022/03/24 09:23:41;;;;;;;34.60;27.47;;;17.70;99.80;;;;;;4916965;29;20240;-61
2022/03/24 09:26:10;;;;;;;36.07;26.67;;;17.90;98.60;;;;;;4917241;29;20323;-61
2022/03/24 09:28:56;;;;;;;35.67;27.60;;;18.00;98.30;;;;;;4922539;29;20251;-61
2022/03/24 09:31:25;;;;;;;33.43;25.67;;;18.20;99.20;;;;;;4933526;29;20574;-61
2022/03/24 09:33:53;;;;;;;35.20;26.83;;;18.40;98.70;;;;;;4914040;29;20243;-61
2022/03/24 09:36:22;;;;;;;36.53;26.77;;;18.50;98.10;;;;;;4917013;29;20237;-61
2022/03/24 09:38:51;;;;;;;35.57;27.23;;;18.70;98.60;;;;;;4916804;29;20600;-61
2022/03/24 09:41:20;;;;;;;37.43;28.63;;;18.80;98.00;;;;;;4916879;29;20235;-61
2022/03/24 09:43:48;;;;;;;34.73;26.73;;;18.90;95.20;;;;;;4921072;29;20264;-60
2022/03/24 09:46:20;;;;;;;34.57;26.83;;;18.90;97.20;;;;;;4935673;29;20249;-60
2022/03/24 09:48:48;;;;;;;32.40;26.60;;;19.10;96.40;;;;;;4935375;29;20241;-61
2022/03/24 09:51:16;;;;;;;35.37;27.67;;;19.20;95.60;;;;;;4918480;29;20243;-61
2022/03/24 09:53:45;;;;;;;32.50;27.07;;;19.40;96.40;;;;;;4920393;29;20355;-61
2022/03/24 09:56:15;;;;;;;32.97;26.83;;;19.60;96.70;;;;;;4922432;29;20333;-61
2022/03/24 09:58:44;;;;;;;31.27;26.03;;;19.70;95.90;;;;;;4920474;29;20246;-59
2022/03/24 10:01:17;;;;;;;37.57;28.93;;;19.70;95.70;;;;;;4935656;29;20267;-61
2022/03/24 10:04:06;;;;;;;35.70;28.33;;;20.00;95.40;;;;;;4935301;29;20243;-61
2022/03/24 10:06:36;;;;;;;32.77;26.97;;;19.90;93.80;;;;;;4935485;29;20260;-61
2022/03/24 10:09:05;;;;;;;34.37;26.87;;;19.60;93.80;;;;;;4928286;29;20231;-61
2022/03/24 10:11:36;;;;;;;34.67;26.63;;;19.30;93.50;;;;;;4915895;29;20248;-61
2022/03/24 10:14:05;;;;;;;34.60;26.07;;;19.50;94.00;;;;;;4916676;29;20267;-61
2022/03/24 10:16:41;;;;;;;38.03;26.80;;;19.60;93.70;;;;;;4916243;29;20254;-60
2022/03/24 10:19:14;;;;;;;33.63;26.33;;;19.90;93.10;;;;;;4915730;29;20238;-61
2022/03/24 10:21:45;;;;;;;35.63;26.50;;;20.20;93.40;;;;;;4915946;29;20299;-60
2022/03/24 10:24:14;;;;;;;37.13;26.20;;;20.40;92.30;;;;;;4924052;29;20243;-61
2022/03/24 10:26:46;;;;;;;29.47;25.13;;;20.40;93.00;;;;;;4935133;29;20250;-61
2022/03/24 10:29:16;;;;;;;34.00;27.33;;;20.40;93.20;;;;;;4934174;29;20254;-61
2022/03/24 10:31:44;;;;;;;34.23;26.63;;;20.60;92.90;;;;;;4934865;29;20257;-61
2022/03/24 10:34:13;;;;;;;33.00;26.50;;;20.80;93.30;;;;;;4926626;29;20283;-61
2022/03/24 10:36:42;;;;;;;32.07;26.37;;;21.00;92.80;;;;;;4915884;29;20240;-60
2022/03/24 10:39:11;;;;;;;34.37;27.53;;;21.00;93.10;;;;;;4915814;29;20290;-61
2022/03/24 10:41:39;;;;;;;33.13;28.17;;;21.10;92.30;;;;;;4915551;29;20247;-61
2022/03/24 10:44:11;;;;;;;34.03;27.23;;;21.10;92.40;;;;;;4923143;29;20239;-60
2022/03/24 10:46:41;;;;;;;34.97;27.87;;;21.10;92.20;;;;;;4934535;29;20243;-60
2022/03/24 10:49:19;;;;;;;33.50;27.00;;;20.90;91.80;;;;;;4934285;29;20247;-61
2022/03/24 10:51:48;;;;;;;34.60;26.97;;;21.20;92.30;;;;;;4915472;29;20247;-61
2022/03/24 10:54:28;;;;;;;33.10;26.63;;;21.50;91.90;;;;;;4923850;29;20312;-61
2022/03/24 10:57:01;;;;;;;33.53;25.97;;;21.70;91.50;;;;;;4934410;29;20275;-61
2022/03/24 10:59:35;;;;;;;34.03;28.00;;;21.70;91.60;;;;;;4923365;29;20240;-60
2022/03/24 11:02:05;;;;;;;37.43;26.03;;;21.80;90.80;;;;;;4910931;29;20652;-61
2022/03/24 11:04:33;;;;;;;33.37;27.50;;;21.70;91.50;;;;;;4929225;29;20243;-60
2022/03/24 11:07:01;;;;;;;32.33;26.03;;;21.70;91.10;;;;;;4920129;29;20327;-61
2022/03/24 11:09:31;;;;;;;33.27;28.00;;;21.90;91.60;;;;;;4922277;29;20588;-61
2022/03/24 11:12:26;;;;;;;33.03;27.07;;;22.10;90.50;;;;;;4915260;29;20232;-61
2022/03/24 11:14:58;;;;;;;33.30;27.43;;;22.00;90.10;;;;;;4919599;29;20267;-61
2022/03/24 11:17:29;;;;;;;36.30;25.77;;;22.20;90.40;;;;;;4934063;29;20247;-61
2022/03/24 11:20:07;;;;;;;31.73;25.37;;;22.30;90.90;;;;;;4933617;29;20649;-61
2022/03/24 11:22:41;;;;;;;32.20;25.07;;;22.30;90.50;;;;;;4933970;29;20239;-61
2022/03/24 11:25:10;;;;;;;35.50;27.87;;;22.30;90.30;;;;;;4933508;29;20290;-60
2022/03/24 11:27:39;;;;;;;31.57;25.30;;;22.50;90.50;;;;;;4933861;29;20784;-60
2022/03/24 11:30:11;;;;;;;34.30;27.53;;;22.60;90.10;;;;;;4918644;29;20252;-61
2022/03/24 11:32:42;;;;;;;30.40;25.57;;;22.60;88.60;;;;;;4914917;29;20300;-60
2022/03/24 11:35:11;;;;;;;34.83;28.10;;;22.50;88.60;;;;;;4923197;29;20240;-60
2022/03/24 11:37:40;;;;;;;32.73;27.43;;;22.30;84.10;;;;;;4922808;29;20701;-61
2022/03/24 11:40:11;;;;;;;34.87;28.07;;;22.20;88.90;;;;;;4928770;29;20240;-60
2022/03/24 11:42:45;;;;;;;35.83;28.20;;;22.00;84.40;;;;;;4914733;29;20236;-60
2022/03/24 11:45:28;;;;;;;33.37;27.60;;;21.80;88.80;;;;;;4921949;29;20368;-60
2022/03/24 11:48:05;;;;;;;34.03;26.57;;;22.00;87.90;;;;;;4914178;29;20263;-59
2022/03/24 11:50:42;;;;;;;33.17;27.53;;;22.10;87.30;;;;;;4932277;29;20240;-60
2022/03/24 11:53:17;;;;;;;34.27;27.33;;;22.30;89.80;;;;;;4933481;29;20243;-60
2022/03/24 11:56:04;;;;;;;36.83;27.43;;;22.40;89.00;;;;;;4907325;29;20252;-60
2022/03/24 11:58:35;;;;;;;37.00;27.43;;;22.20;87.20;;;;;;4914648;29;20259;-61
2022/03/24 12:01:28;;;;;;;33.83;28.03;;;22.00;87.50;;;;;;4914793;29;20327;-61
2022/03/24 12:04:04;;;;;;;35.03;28.43;;;21.80;87.20;;;;;;4917210;29;20306;-61
2022/03/24 12:06:54;;;;;;;32.67;27.83;;;21.60;88.80;;;;;;4933638;29;20235;-61
2022/03/24 12:09:28;;;;;;;34.90;27.33;;;21.40;87.10;;;;;;4932906;29;20728;-61
2022/03/24 12:12:10;;;;;;;33.10;26.87;;;21.20;90.10;;;;;;4917704;29;20696;-60
2022/03/24 12:14:45;;;;;;;35.20;28.53;;;21.20;90.00;;;;;;4907824;29;20244;-61
2022/03/24 12:17:20;;;;;;;33.47;27.03;;;21.10;88.20;;;;;;4920584;29;20239;-61
2022/03/24 12:19:52;;;;;;;34.60;27.47;;;21.00;89.90;;;;;;4923471;29;20592;-61
2022/03/24 12:22:42;;;;;;;38.13;28.13;;;21.00;90.20;;;;;;4933475;29;20247;-61
2022/03/24 12:25:30;;;;;;;33.00;27.77;;;20.90;90.20;;;;;;4923122;29;20696;-60
2022/03/24 12:28:05;;;;;;;34.13;26.23;;;20.90;90.10;;;;;;4921786;29;20692;-61
2022/03/24 12:31:04;;;;;;;33.90;27.23;;;20.90;90.40;;;;;;4913843;29;20245;-60
2022/03/24 12:33:48;;;;;;;35.80;27.20;;;20.60;88.60;;;;;;4915162;29;20250;-61
2022/03/24 12:36:38;;;;;;;34.90;27.43;;;20.20;91.50;;;;;;4911826;29;20756;-61
2022/03/24 12:39:08;;;;;;;35.13;25.70;;;20.30;91.80;;;;;;4912814;29;20248;-61
2022/03/24 12:41:36;;;;;;;33.47;26.17;;;20.40;91.80;;;;;;4911352;29;20359;-61
2022/03/24 12:44:07;;;;;;;32.43;26.40;;;20.30;90.90;;;;;;4913768;29;20370;-60
2022/03/24 12:46:38;;;;;;;33.17;26.60;;;20.30;89.80;;;;;;4914108;29;20240;-60
2022/03/24 12:49:27;;;;;;;33.67;25.80;;;20.20;90.10;;;;;;4914428;29;20644;-61